Terminal Aerodrome Forecast
Issued by NWS Twin Cities, MN

Home | Current Version | Previous Version | Text Only | Print | Product List | Glossary On
Versions: 1 2 3 4 5 6 7 8 9 10 11 12 13 14 15 16 17 18 19 20 21 22 23 24
000
FTUS43 KMPX 020533
TAFEAU
TAF
KEAU 020533Z 0206/0306 19004KT 5SM BCFG FEW004 SCT040 BKN200
      TEMPO 0210/0214 5SM -SHRA BKN050 OVC100
     FM021400 17006KT P6SM BKN100 OVC150
     FM022100 18011KT P6SM VCSH BKN050
     FM030100 15007KT P6SM FEW250=

USA.gov is the U.S. government's official web portal to all federal, state and local government web resources and services.